Patterson, Louisiana
Current Conditions -  °F | °C
As of 8:35 AM on Friday 24 Oct 2014 (Local Time) from KPTN Reporting Station
Clear Clear  
Wind Chill: 57°   Ceiling: Unl
Heat Index: 57°   Visibility: 9mi
Dew Point: 54°   Wind: 5mph
Humidity: 88%   Direction: 360°N
Pressure: 30.14"   Gusts: NA
Location:  29.69°N, 91.3°W
Report Text: KPTN 241335Z AUTO 36004KT 9SM CLR 14/12 A3014 RMK AO1
Loading
Personal Weather Stations






























Interactive Weather Map New forecast layout! Learn more

10-Day Weather Forecast

Advertisements
Track Severe Weather on mobile